Time;durP1;ratioP1;P1;durP2;ratioP2;P2;SDS_P1;SDS_P2;PMS_P1;PMS_P2;Temp;Humidity;BMP_temperature;BMP_pressure;BME280_temperature;BME280_humidity;BME280_pressure;Samples;Min_cycle;Max_cycle;Signal;HPM_P1;HPM_P2
2023/09/17 00:00:38;;;;;;;0.10;0.00;;;;;;;17.42;100.00;101002.47;4987518;28;20097;-66
2023/09/17 00:03:03;;;;;;;0.00;0.00;;;;;;;17.43;100.00;101006.75;4988377;28;20092;-66
2023/09/17 00:05:31;;;;;;;0.52;0.05;;;;;;;17.44;100.00;101013.66;4986850;28;20034;-66
2023/09/17 00:07:57;;;;;;;0.45;0.00;;;;;;;17.39;100.00;101012.53;4988763;28;20030;-67
2023/09/17 00:10:23;;;;;;;0.25;0.10;;;;;;;17.34;100.00;101007.78;4989320;28;20048;-66
2023/09/17 00:12:53;;;;;;;0.00;0.00;;;;;;;17.29;100.00;101004.03;4992251;28;20030;-66
2023/09/17 00:15:19;;;;;;;0.00;0.00;;;;;;;17.24;100.00;100997.47;4990342;28;21269;-67
2023/09/17 00:17:45;;;;;;;0.17;0.00;;;;;;;17.24;100.00;100999.28;4990512;28;20030;-66
2023/09/17 00:20:11;;;;;;;0.10;0.10;;;;;;;17.19;100.00;100997.19;4993040;28;20579;-66
2023/09/17 00:22:37;;;;;;;0.52;0.10;;;;;;;17.22;100.00;100991.56;4989935;28;20596;-67
2023/09/17 00:25:04;;;;;;;0.15;0.03;;;;;;;17.35;100.00;100991.00;4988161;28;20026;-66
2023/09/17 00:27:30;;;;;;;0.30;0.10;;;;;;;17.50;100.00;100993.66;4989847;28;20037;-66
2023/09/17 00:29:55;;;;;;;1.58;0.10;;;;;;;17.55;100.00;100993.94;4993536;28;20547;-67
2023/09/17 00:32:21;;;;;;;0.13;0.00;;;;;;;17.50;100.00;100991.03;4989752;28;20480;-67
2023/09/17 00:34:46;;;;;;;0.75;0.15;;;;;;;17.38;100.00;100988.00;4991430;28;20042;-67
2023/09/17 00:37:11;;;;;;;0.10;0.00;;;;;;;17.32;100.00;100986.06;4991365;28;20038;-67
2023/09/17 00:39:37;;;;;;;0.55;0.10;;;;;;;17.36;100.00;100974.19;4988150;28;20034;-66
2023/09/17 00:42:03;;;;;;;0.45;0.10;;;;;;;17.38;100.00;100979.28;4991903;28;20038;-66
2023/09/17 00:44:28;;;;;;;0.00;0.00;;;;;;;17.44;100.00;100984.69;4990732;28;20120;-67
2023/09/17 00:46:55;;;;;;;0.20;0.00;;;;;;;17.54;100.00;100979.13;4992552;28;20073;-67
2023/09/17 00:49:22;;;;;;;0.00;0.00;;;;;;;17.52;100.00;100974.03;4984828;28;20535;-66
2023/09/17 00:51:48;;;;;;;0.40;0.20;;;;;;;17.49;100.00;100963.03;4991623;28;20069;-66
2023/09/17 00:54:16;;;;;;;0.15;0.00;;;;;;;17.44;100.00;100968.88;4991403;28;20065;-66
2023/09/17 00:56:41;;;;;;;0.38;0.00;;;;;;;17.34;100.00;100952.47;4989961;28;20388;-66
2023/09/17 00:59:07;;;;;;;0.00;0.00;;;;;;;17.28;100.00;100955.81;4992226;28;20124;-66
2023/09/17 01:01:34;;;;;;;0.10;0.00;;;;;;;17.14;100.00;100956.56;4989327;28;20030;-67
2023/09/17 01:03:59;;;;;;;0.10;0.00;;;;;;;17.08;100.00;100950.19;4988707;28;20041;-66
2023/09/17 01:06:25;;;;;;;0.10;0.00;;;;;;;17.04;100.00;100954.16;4991216;28;20462;-66
2023/09/17 01:08:51;;;;;;;0.00;0.00;;;;;;;17.00;100.00;100947.63;4990985;28;20035;-67
2023/09/17 01:11:18;;;;;;;0.10;0.00;;;;;;;17.01;100.00;100956.34;4988872;28;20053;-67
2023/09/17 01:13:51;;;;;;;0.10;0.08;;;;;;;17.00;100.00;100962.63;4988557;28;20042;-67
2023/09/17 01:16:17;;;;;;;0.10;0.00;;;;;;;16.98;100.00;100959.34;4989749;28;20041;-66
2023/09/17 01:18:42;;;;;;;0.08;0.03;;;;;;;16.95;100.00;100951.78;4990687;28;20468;-67
2023/09/17 01:21:16;;;;;;;0.03;0.00;;;;;;;16.91;100.00;100949.50;4989834;28;20395;-66
2023/09/17 01:24:21;;;;;;;0.10;0.00;;;;;;;16.86;100.00;100957.09;4988758;28;20042;-67
2023/09/17 01:27:01;;;;;;;0.00;0.00;;;;;;;16.81;100.00;100948.06;4990375;28;20188;-67
2023/09/17 01:29:32;;;;;;;0.25;0.10;;;;;;;16.77;100.00;100950.22;4990682;28;20084;-66
2023/09/17 01:31:57;;;;;;;0.10;0.00;;;;;;;16.74;100.00;100957.66;4985785;28;20069;-66
2023/09/17 01:34:23;;;;;;;0.17;0.00;;;;;;;16.72;100.00;100957.81;4990833;28;20117;-66
2023/09/17 01:36:49;;;;;;;0.13;0.10;;;;;;;16.74;100.00;100960.28;4990992;28;20042;-67
2023/09/17 01:39:25;;;;;;;0.03;0.00;;;;;;;16.73;100.00;100959.47;4990123;28;20480;-67
2023/09/17 01:41:50;;;;;;;;;;;;;;;16.72;100.00;100954.38;4991709;28;20038;-66
2023/09/17 01:44:18;;;;;;;0.00;0.00;;;;;;;16.70;100.00;100956.34;4989136;28;19918;-67
2023/09/17 01:46:45;;;;;;;0.00;0.00;;;;;;;16.68;100.00;100964.41;4989170;28;20076;-67
2023/09/17 01:49:12;;;;;;;0.17;0.00;;;;;;;16.68;100.00;100964.41;4988685;28;20038;-67
2023/09/17 01:51:41;;;;;;;0.63;0.00;;;;;;;16.64;100.00;100968.38;4989716;28;20030;-66
2023/09/17 01:54:08;;;;;;;0.20;0.00;;;;;;;16.62;100.00;100970.34;4991475;28;20034;-67
2023/09/17 01:56:37;;;;;;;0.08;0.00;;;;;;;16.63;100.00;100981.66;4987340;28;20049;-66
2023/09/17 01:59:04;;;;;;;0.55;0.05;;;;;;;16.69;100.00;100970.50;4991102;28;20088;-66
2023/09/17 02:01:30;;;;;;;0.17;0.00;;;;;;;16.73;100.00;100972.63;4989210;28;20031;-66
2023/09/17 02:03:57;;;;;;;0.08;0.00;;;;;;;16.72;100.00;100965.72;4991749;28;20121;-67
2023/09/17 02:06:23;;;;;;;0.73;0.03;;;;;;;16.75;100.00;100965.38;4989045;28;20034;-67
2023/09/17 02:08:48;;;;;;;0.22;0.10;;;;;;;16.82;100.00;100966.31;4990296;28;20061;-67
2023/09/17 02:11:14;;;;;;;0.15;0.05;;;;;;;16.87;100.00;100963.19;4984827;28;20443;-67
2023/09/17 02:13:39;;;;;;;0.10;0.00;;;;;;;16.84;100.00;100951.19;4988976;28;20031;-66
2023/09/17 02:16:05;;;;;;;0.20;0.00;;;;;;;16.84;100.00;100953.81;4991838;28;20026;-67
2023/09/17 02:18:30;;;;;;;0.20;0.10;;;;;;;16.84;100.00;100953.81;4987912;28;20064;-67
2023/09/17 02:20:56;;;;;;;0.20;0.00;;;;;;;16.92;100.00;100955.59;4989922;28;20436;-67
2023/09/17 02:23:22;;;;;;;0.20;0.10;;;;;;;16.97;100.00;100947.16;4987889;28;20109;-66
2023/09/17 02:25:47;;;;;;;0.00;0.00;;;;;;;17.04;100.00;100941.00;4986051;28;20030;-67
2023/09/17 02:28:13;;;;;;;0.40;0.30;;;;;;;17.07;100.00;100939.84;4989462;28;20022;-67
2023/09/17 02:30:38;;;;;;;0.15;0.05;;;;;;;17.06;100.00;100939.00;4990162;28;20026;-67
2023/09/17 02:33:05;;;;;;;1.00;0.10;;;;;;;17.00;100.00;100937.09;4983897;28;20031;-67
2023/09/17 02:35:30;;;;;;;0.00;0.00;;;;;;;16.96;100.00;100927.91;4987450;28;20057;-66
2023/09/17 02:37:55;;;;;;;0.25;0.03;;;;;;;16.92;100.00;100924.81;4990609;28;20591;-66
2023/09/17 02:40:23;;;;;;;0.00;0.00;;;;;;;16.89;100.00;100925.16;4988649;28;20468;-66
2023/09/17 02:42:48;;;;;;;0.30;0.10;;;;;;;16.85;100.00;100928.31;4987881;28;20459;-67
2023/09/17 02:45:14;;;;;;;0.00;0.00;;;;;;;16.84;100.00;100921.41;4991525;28;20077;-67
2023/09/17 02:47:42;;;;;;;0.10;0.00;;;;;;;16.78;100.00;100920.28;4984806;28;20571;-67
2023/09/17 02:50:09;;;;;;;0.00;0.00;;;;;;;16.73;100.00;100912.09;4989089;28;20030;-67
2023/09/17 02:52:35;;;;;;;0.68;0.00;;;;;;;16.70;100.00;100909.81;4986721;28;20388;-67
2023/09/17 02:55:02;;;;;;;0.10;0.00;;;;;;;16.68;100.00;100909.16;4986193;28;20033;-67
2023/09/17 02:57:28;;;;;;;0.17;0.10;;;;;;;16.65;100.00;100912.16;4989796;28;20695;-67
2023/09/17 02:59:53;;;;;;;0.10;0.10;;;;;;;16.64;100.00;100917.53;4990487;28;20066;-67
2023/09/17 03:02:19;;;;;;;0.50;0.00;;;;;;;16.60;100.00;100917.06;4986343;28;20030;-67
2023/09/17 03:04:45;;;;;;;0.13;0.00;;;;;;;16.56;100.00;100913.97;4989196;28;20088;-67
2023/09/17 03:07:11;;;;;;;0.03;0.00;;;;;;;16.53;100.00;100909.06;4989884;28;20046;-67
2023/09/17 03:09:38;;;;;;;0.15;0.00;;;;;;;16.50;100.00;100911.22;4988737;28;20411;-67
2023/09/17 03:12:04;;;;;;;0.00;0.00;;;;;;;16.48;100.00;100910.56;4987006;28;20038;-66
2023/09/17 03:14:30;;;;;;;0.22;0.08;;;;;;;16.48;100.00;100921.09;4989004;28;20047;-66
2023/09/17 03:16:55;;;;;;;0.00;0.00;;;;;;;16.48;100.00;100921.09;4988756;28;20121;-67
2023/09/17 03:19:21;;;;;;;0.00;0.00;;;;;;;16.48;100.00;100921.91;4989402;28;20038;-66
2023/09/17 03:21:46;;;;;;;0.10;0.00;;;;;;;16.44;100.00;100920.63;4989954;28;20039;-67
2023/09/17 03:24:15;;;;;;;0.38;0.00;;;;;;;16.41;100.00;100917.50;4989199;28;20038;-67
2023/09/17 03:26:41;;;;;;;0.30;0.00;;;;;;;16.36;100.00;100917.19;4987070;28;20042;-66
2023/09/17 03:29:07;;;;;;;0.00;0.00;;;;;;;16.33;100.00;100922.81;4988370;28;20084;-67
2023/09/17 03:31:34;;;;;;;0.20;0.10;;;;;;;16.33;100.00;100917.53;4985693;28;20125;-67
2023/09/17 03:33:59;;;;;;;0.22;0.08;;;;;;;16.29;100.00;100926.75;4987234;28;20033;-68
2023/09/17 03:36:25;;;;;;;0.17;0.08;;;;;;;16.34;100.00;100919.19;4987553;28;20119;-67
2023/09/17 03:38:50;;;;;;;0.30;0.00;;;;;;;16.36;100.00;100917.19;4985999;28;20058;-67
2023/09/17 03:41:16;;;;;;;0.25;0.10;;;;;;;16.32;100.00;100915.91;4982684;28;20042;-67
2023/09/17 03:43:41;;;;;;;0.20;0.05;;;;;;;16.29;100.00;100926.75;4982365;28;20057;-67
2023/09/17 03:46:07;;;;;;;0.20;0.10;;;;;;;16.21;100.00;100915.28;4987015;28;20963;-66
2023/09/17 03:48:32;;;;;;;0.20;0.00;;;;;;;16.24;100.00;100920.19;4988360;28;20037;-67
2023/09/17 03:51:00;;;;;;;0.00;0.00;;;;;;;16.31;100.00;100909.81;4985728;28;20034;-67
2023/09/17 03:53:27;;;;;;;0.00;0.00;;;;;;;16.31;100.00;100906.38;4987069;28;20109;-67
2023/09/17 03:55:53;;;;;;;0.10;0.00;;;;;;;16.32;100.00;100902.75;4992996;28;20045;-67
2023/09/17 03:58:18;;;;;;;0.77;0.15;;;;;;;16.30;100.00;100897.66;4989971;28;20038;-67
2023/09/17 04:00:44;;;;;;;0.00;0.00;;;;;;;16.31;100.00;100903.75;4992709;28;20453;-67
2023/09/17 04:03:10;;;;;;;0.20;0.10;;;;;;;16.34;100.00;100908.66;4989868;28;20184;-67
2023/09/17 04:05:36;;;;;;;0.90;0.03;;;;;;;16.31;100.00;100909.81;4991679;28;20046;-67
2023/09/17 04:08:03;;;;;;;0.10;0.00;;;;;;;16.31;100.00;100909.00;4993515;28;20404;-67
2023/09/17 04:10:28;;;;;;;0.88;0.10;;;;;;;16.27;100.00;100908.53;4991538;28;20049;-67
2023/09/17 04:12:54;;;;;;;0.65;0.00;;;;;;;16.24;100.00;100912.31;4992280;28;20035;-67
2023/09/17 04:15:20;;;;;;;0.55;0.10;;;;;;;16.23;100.00;100918.56;4988470;28;20023;-67
2023/09/17 04:17:47;;;;;;;0.15;0.10;;;;;;;16.21;100.00;100915.28;4992778;28;20034;-67
2023/09/17 04:20:14;;;;;;;0.15;0.00;;;;;;;16.19;100.00;100917.25;4993286;28;20070;-67
2023/09/17 04:22:41;;;;;;;0.03;0.00;;;;;;;16.16;100.00;100922.84;4992037;28;20045;-67
2023/09/17 04:25:08;;;;;;;0.10;0.03;;;;;;;16.16;100.00;100922.84;4992454;28;20050;-66
2023/09/17 04:27:34;;;;;;;0.20;0.00;;;;;;;16.14;100.00;100919.56;4992834;28;20085;-67
2023/09/17 04:29:59;;;;;;;0.20;0.00;;;;;;;16.14;100.00;100929.28;4992995;28;20034;-66
2023/09/17 04:32:25;;;;;;;0.25;0.08;;;;;;;16.11;100.00;100930.44;4992634;28;20173;-67
2023/09/17 04:34:51;;;;;;;0.00;0.00;;;;;;;16.17;100.00;100931.56;4988511;28;20038;-67
2023/09/17 04:37:19;;;;;;;0.00;0.00;;;;;;;16.34;100.00;100920.00;4989799;28;20022;-66
2023/09/17 04:39:49;;;;;;;0.00;0.00;;;;;;;16.50;100.00;100932.28;4992444;28;20049;-67
2023/09/17 04:42:15;;;;;;;0.20;0.00;;;;;;;16.55;100.00;100933.38;4991557;28;20109;-67
2023/09/17 04:44:40;;;;;;;0.00;0.00;;;;;;;16.59;100.00;100931.22;4988968;28;20461;-67
2023/09/17 04:47:06;;;;;;;0.28;0.05;;;;;;;16.63;100.00;100927.25;4992132;28;20041;-67
2023/09/17 04:49:33;;;;;;;0.20;0.00;;;;;;;16.62;100.00;100922.97;4989901;28;20034;-67
2023/09/17 04:51:59;;;;;;;0.73;0.20;;;;;;;16.61;100.00;100916.06;4991942;28;20484;-67
2023/09/17 04:54:24;;;;;;;0.10;0.00;;;;;;;16.59;100.00;100923.31;4990610;28;20046;-67
2023/09/17 04:56:50;;;;;;;0.75;0.10;;;;;;;16.55;100.00;100920.22;4990839;28;20038;-67
2023/09/17 04:59:15;;;;;;;0.30;0.10;;;;;;;16.50;100.00;100929.63;4989688;28;20038;-67
2023/09/17 05:01:41;;;;;;;0.17;0.03;;;;;;;16.47;100.00;100925.53;4990443;28;20069;-67
2023/09/17 05:04:07;;;;;;;0.10;0.00;;;;;;;16.37;100.00;100927.56;4987436;28;20046;-67
2023/09/17 05:06:32;;;;;;;0.75;0.00;;;;;;;16.23;100.00;100928.25;4990940;28;20109;-67
2023/09/17 05:08:58;;;;;;;0.28;0.00;;;;;;;16.16;100.00;100927.28;4990166;28;20049;-67
2023/09/17 05:11:23;;;;;;;0.00;0.00;;;;;;;16.16;100.00;100927.28;4989083;28;20050;-67
2023/09/17 05:13:49;;;;;;;0.88;0.10;;;;;;;16.23;100.00;100928.25;4990523;28;20042;-67
2023/09/17 05:16:15;;;;;;;0.10;0.00;;;;;;;16.32;100.00;100935.13;4991377;28;21389;-67
2023/09/17 05:18:40;;;;;;;0.10;0.00;;;;;;;16.43;100.00;100923.41;4988033;28;20502;-67
2023/09/17 05:21:06;;;;;;;1.75;0.05;;;;;;;16.54;100.00;100933.56;4991899;28;20165;-67
2023/09/17 05:23:31;;;;;;;0.75;0.10;;;;;;;16.61;100.00;100931.84;4983577;28;20115;-67
2023/09/17 05:25:57;;;;;;;0.10;0.08;;;;;;;16.65;100.00;100930.56;4989811;28;20373;-67
2023/09/17 05:28:23;;;;;;;0.30;0.00;;;;;;;16.71;100.00;100935.13;4990725;28;20026;-66
2023/09/17 05:30:49;;;;;;;0.35;0.00;;;;;;;16.76;100.00;100938.06;4988516;28;20042;-66
2023/09/17 05:33:14;;;;;;;0.50;0.00;;;;;;;16.80;100.00;100939.34;4989483;28;20037;-66
2023/09/17 05:35:40;;;;;;;0.32;0.00;;;;;;;16.81;100.00;100951.53;4989872;28;20492;-67
2023/09/17 05:38:05;;;;;;;0.90;0.10;;;;;;;16.83;100.00;100946.09;4990453;28;20038;-66
2023/09/17 05:40:31;;;;;;;0.45;0.20;;;;;;;16.85;100.00;100950.19;4990219;28;20145;-66
2023/09/17 05:42:57;;;;;;;0.30;0.03;;;;;;;16.89;100.00;100945.41;4991236;28;20504;-66
2023/09/17 05:45:23;;;;;;;0.50;0.25;;;;;;;16.89;100.00;100955.94;4995983;28;20038;-67
2023/09/17 05:47:49;;;;;;;0.38;0.20;;;;;;;16.91;100.00;100964.47;4986449;28;20491;-67
2023/09/17 05:50:14;;;;;;;0.43;0.10;;;;;;;16.96;100.00;100962.13;4993814;28;20131;-66
2023/09/17 05:52:40;;;;;;;0.55;0.20;;;;;;;17.00;100.00;100957.34;4987090;28;20538;-66
2023/09/17 05:55:06;;;;;;;0.20;0.08;;;;;;;17.04;100.00;100963.88;4988878;28;20030;-66
2023/09/17 05:57:32;;;;;;;0.35;0.30;;;;;;;17.09;100.00;100961.53;4982832;28;20044;-66
2023/09/17 05:59:58;;;;;;;0.65;0.10;;;;;;;17.14;100.00;100961.84;4991557;28;20038;-67
2023/09/17 06:02:25;;;;;;;0.50;0.10;;;;;;;17.17;100.00;100959.69;4990063;28;20026;-66
2023/09/17 06:04:53;;;;;;;0.63;0.10;;;;;;;17.22;100.00;100970.50;4988863;28;20030;-66
2023/09/17 06:07:20;;;;;;;0.45;0.20;;;;;;;17.31;100.00;100970.44;4987555;28;20041;-67
2023/09/17 06:09:45;;;;;;;0.40;0.10;;;;;;;17.38;100.00;100974.03;4986634;28;20057;-66
2023/09/17 06:12:12;;;;;;;0.52;0.10;;;;;;;17.46;100.00;100977.41;4987016;28;20104;-67
2023/09/17 06:14:37;;;;;;;0.25;0.00;;;;;;;17.54;100.00;100976.50;4989787;28;20038;-68
2023/09/17 06:17:03;;;;;;;0.35;0.17;;;;;;;17.62;100.00;100983.53;4985733;28;20049;-67
2023/09/17 06:19:29;;;;;;;0.88;0.03;;;;;;;17.67;100.00;100975.94;4990561;28;20030;-67
2023/09/17 06:21:54;;;;;;;0.40;0.13;;;;;;;17.68;100.00;100980.22;4987651;28;20129;-67
2023/09/17 06:24:20;;;;;;;0.00;0.00;;;;;;;17.72;100.00;100981.50;4988761;28;20052;-67
2023/09/17 06:26:45;;;;;;;0.75;0.05;;;;;;;17.79;100.00;100980.59;4993445;28;20034;-68
2023/09/17 06:29:11;;;;;;;0.70;0.10;;;;;;;17.90;100.00;100987.28;4989409;28;20464;-67
2023/09/17 06:31:36;;;;;;;0.55;0.10;;;;;;;17.98;100.00;100979.25;4989400;28;20094;-67
2023/09/17 06:34:02;;;;;;;0.50;0.20;;;;;;;18.02;100.00;100988.44;4990296;28;20026;-67
2023/09/17 06:36:28;;;;;;;0.20;0.15;;;;;;;18.03;100.00;100995.34;4989575;28;20368;-66
2023/09/17 06:38:54;;;;;;;0.10;0.10;;;;;;;18.11;100.00;100991.81;4990261;28;20036;-66
2023/09/17 06:41:19;;;;;;;0.00;0.00;;;;;;;18.23;100.00;101001.75;4988430;28;20383;-67
2023/09/17 06:43:46;;;;;;;0.90;0.00;;;;;;;18.37;100.00;100999.31;4990369;28;20034;-67
2023/09/17 06:46:11;;;;;;;0.00;0.00;;;;;;;18.39;100.00;101006.03;4989152;28;20092;-67
2023/09/17 06:48:37;;;;;;;0.55;0.10;;;;;;;18.45;100.00;100999.19;4986144;28;20447;-67
2023/09/17 06:51:02;;;;;;;0.30;0.10;;;;;;;18.50;100.00;100996.81;4988575;28;20044;-67
2023/09/17 06:53:28;;;;;;;0.17;0.00;;;;;;;18.53;100.00;100997.28;4988165;28;20101;-67
2023/09/17 06:55:53;;;;;;;0.50;0.10;;;;;;;18.61;100.00;101004.31;4987692;28;20097;-67
2023/09/17 06:58:19;;;;;;;0.05;0.00;;;;;;;18.69;100.00;101006.84;4990584;28;20089;-63
2023/09/17 07:00:46;;;;;;;0.57;0.17;;;;;;;18.77;100.00;101005.94;4990957;28;20046;-63
2023/09/17 07:03:12;;;;;;;0.60;0.10;;;;;;;18.75;100.00;101008.75;4990001;28;20028;-63
2023/09/17 07:05:37;;;;;;;0.60;0.17;;;;;;;18.77;100.00;101012.03;4987917;28;20026;-63
2023/09/17 07:08:03;;;;;;;0.95;0.10;;;;;;;18.90;100.00;101012.16;4987429;28;20038;-63
2023/09/17 07:10:29;;;;;;;0.65;0.30;;;;;;;19.05;100.00;101012.13;4986490;28;20121;-63
2023/09/17 07:12:54;;;;;;;0.00;0.00;;;;;;;19.19;100.00;101016.56;4984325;28;20037;-63
2023/09/17 07:15:21;;;;;;;0.10;0.05;;;;;;;19.24;100.00;101013.34;4986073;28;20033;-63
2023/09/17 07:17:47;;;;;;;0.40;0.10;;;;;;;19.25;100.00;101014.16;4985473;28;20058;-63
2023/09/17 07:20:15;;;;;;;0.28;0.10;;;;;;;19.29;100.00;101016.25;4989151;28;20065;-63
2023/09/17 07:22:41;;;;;;;0.30;0.10;;;;;;;19.31;100.00;101014.25;4989675;28;20045;-63
2023/09/17 07:25:07;;;;;;;0.00;0.00;;;;;;;19.39;100.00;101016.72;4988628;28;20121;-63
2023/09/17 07:27:33;;;;;;;0.28;0.10;;;;;;;19.43;100.00;101018.00;4988838;28;20029;-63
2023/09/17 07:29:59;;;;;;;0.03;0.00;;;;;;;19.49;100.00;101019.88;4990461;28;20038;-63
2023/09/17 07:32:29;;;;;;;0.43;0.10;;;;;;;19.57;100.00;101018.16;4989646;28;20133;-63
2023/09/17 07:34:55;;;;;;;0.65;0.20;;;;;;;19.61;100.00;101022.06;4990657;28;20064;-63
2023/09/17 07:37:21;;;;;;;0.17;0.00;;;;;;;19.61;100.00;101022.06;4989318;28;20057;-63
2023/09/17 07:39:49;;;;;;;0.40;0.10;;;;;;;19.59;100.00;101026.72;4989229;28;20125;-63
2023/09/17 07:42:15;;;;;;;0.10;0.00;;;;;;;19.67;100.00;101021.31;4990125;28;20030;-66
2023/09/17 07:44:40;;;;;;;0.08;0.00;;;;;;;19.71;100.00;101019.91;4988658;28;20036;-63
2023/09/17 07:47:09;;;;;;;0.30;0.00;;;;;;;19.75;100.00;101016.69;4988622;28;20022;-63
2023/09/17 07:49:36;;;;;;;0.35;0.10;;;;;;;19.78;100.00;101023.44;4991221;28;20054;-63
2023/09/17 07:52:03;;;;;;;0.70;0.15;;;;;;;19.78;100.00;101026.06;4982867;28;20050;-63
2023/09/17 07:54:30;;;;;;;0.08;0.00;;;;;;;19.81;100.00;101020.41;4985442;28;20042;-67
2023/09/17 07:56:55;;;;;;;0.30;0.05;;;;;;;19.85;100.00;101026.91;4987846;28;20026;-68
2023/09/17 07:59:21;;;;;;;0.00;0.00;;;;;;;19.86;100.00;101029.38;4986350;28;20038;-68
2023/09/17 08:01:48;;;;;;;0.10;0.00;;;;;;;19.93;100.00;101028.63;4988659;28;20445;-68
2023/09/17 08:04:14;;;;;;;0.40;0.00;;;;;;;20.00;100.00;101034.78;4985252;28;20038;-68
2023/09/17 08:06:40;;;;;;;0.10;0.00;;;;;;;20.01;100.00;101028.47;4989165;28;20456;-69
2023/09/17 08:09:06;;;;;;;0.10;0.00;;;;;;;20.05;100.00;101033.19;4986055;28;20035;-68
2023/09/17 08:11:31;;;;;;;0.10;0.00;;;;;;;20.08;100.00;101035.44;4988428;28;20416;-68
2023/09/17 08:13:57;;;;;;;0.10;0.00;;;;;;;20.13;100.00;101040.16;4985395;28;20379;-69
2023/09/17 08:16:26;;;;;;;0.88;0.10;;;;;;;20.18;100.00;101043.06;4988526;28;20427;-69
2023/09/17 08:18:51;;;;;;;0.28;0.00;;;;;;;20.26;100.00;101044.72;4987616;28;20031;-68
2023/09/17 08:21:17;;;;;;;0.10;0.00;;;;;;;20.33;100.00;101045.56;4987101;28;20053;-69
2023/09/17 08:23:44;;;;;;;0.10;0.00;;;;;;;20.40;100.00;101049.09;4985472;28;20039;-68
2023/09/17 08:26:10;;;;;;;0.10;0.10;;;;;;;20.46;100.00;101050.97;4981986;28;20797;-68
2023/09/17 08:28:36;;;;;;;0.00;0.00;;;;;;;20.46;100.00;101058.91;4981219;28;20068;-67
2023/09/17 08:31:02;;;;;;;0.38;0.00;;;;;;;20.49;100.00;101056.69;4992333;28;20062;-68
2023/09/17 08:33:27;;;;;;;0.45;0.10;;;;;;;20.61;100.00;101054.31;4993058;28;20462;-67
2023/09/17 08:35:52;;;;;;;0.10;0.00;;;;;;;20.71;100.00;101065.38;4993811;28;20040;-66
2023/09/17 08:38:19;;;;;;;0.20;0.00;;;;;;;20.80;100.00;101063.38;4991971;28;20555;-62
2023/09/17 08:40:44;;;;;;;0.10;0.00;;;;;;;20.91;100.00;101059.34;4994163;28;20085;-62
2023/09/17 08:43:11;;;;;;;0.20;0.10;;;;;;;20.96;100.00;101057.72;4992911;28;20022;-61
2023/09/17 08:45:36;;;;;;;0.20;0.08;;;;;;;21.02;100.00;101056.13;4993495;28;22348;-62
2023/09/17 08:48:02;;;;;;;0.00;0.00;;;;;;;21.03;100.00;101058.56;4993365;28;20030;-62
2023/09/17 08:50:34;;;;;;;0.10;0.00;;;;;;;21.10;100.00;101070.00;4992414;28;20034;-61
2023/09/17 08:53:05;;;;;;;0.17;0.00;;;;;;;21.19;100.00;101068.00;4993431;28;20034;-62
2023/09/17 08:55:31;;;;;;;0.55;0.10;;;;;;;21.28;100.00;101072.13;4992470;28;20479;-62
2023/09/17 08:58:29;;;;;;;0.10;0.00;;;;;;;21.35;100.00;101075.59;4994374;28;20030;-62
2023/09/17 09:00:58;;;;;;;0.43;0.10;;;;;;;21.36;100.00;101073.78;4993211;28;20047;-62
2023/09/17 09:03:25;;;;;;;0.20;0.10;;;;;;;21.27;100.00;101070.47;4992071;28;20128;-61
2023/09/17 09:05:55;;;;;;;0.00;0.00;;;;;;;21.30;100.00;101075.38;4993263;28;20026;-62
2023/09/17 09:08:21;;;;;;;0.20;0.10;;;;;;;21.33;100.00;101077.63;4992418;28;20041;-62
2023/09/17 09:10:47;;;;;;;0.22;0.00;;;;;;;21.37;100.00;101080.72;4993050;28;20049;-62
2023/09/17 09:13:12;;;;;;;0.00;0.00;;;;;;;21.36;100.00;101079.91;4993215;28;20396;-62
2023/09/17 09:15:38;;;;;;;0.32;0.10;;;;;;;21.36;100.00;101082.53;4992017;28;20511;-62
2023/09/17 09:18:04;;;;;;;0.22;0.00;;;;;;;21.31;100.00;101077.03;4992503;28;20503;-61
2023/09/17 09:20:29;;;;;;;0.20;0.00;;;;;;;21.38;100.00;101077.84;4991508;28;20033;-61
2023/09/17 09:22:55;;;;;;;0.20;0.00;;;;;;;21.41;100.00;101077.47;4992107;28;20552;-61
2023/09/17 09:25:26;;;;;;;0.40;0.10;;;;;;;21.44;100.00;101071.75;4990762;28;20459;-61
2023/09/17 09:27:52;;;;;;;0.32;0.00;;;;;;;21.46;100.00;101074.22;4992676;28;20034;-62
2023/09/17 09:30:17;;;;;;;0.40;0.10;;;;;;;21.43;100.00;101075.44;4992049;28;20090;-62
2023/09/17 09:32:44;;;;;;;0.10;0.00;;;;;;;21.42;100.00;101075.63;4992190;28;20050;-62
2023/09/17 09:35:10;;;;;;;0.10;0.00;;;;;;;21.44;100.00;101071.75;4992702;28;20034;-61
2023/09/17 09:37:36;;;;;;;0.10;0.00;;;;;;;21.54;100.00;101068.72;4991822;28;20538;-61
2023/09/17 09:40:04;;;;;;;0.60;0.10;;;;;;;21.41;100.00;101066.03;4992727;28;20027;-61
2023/09/17 09:42:30;;;;;;;0.32;0.08;;;;;;;21.36;100.00;101069.28;4990958;28;20546;-62
2023/09/17 09:44:57;;;;;;;0.10;0.00;;;;;;;21.47;100.00;101065.25;4992308;28;20080;-61
2023/09/17 09:47:23;;;;;;;0.10;0.03;;;;;;;21.58;100.00;101069.13;4991599;28;20467;-62
2023/09/17 09:49:49;;;;;;;0.10;0.00;;;;;;;21.58;100.00;101071.78;4991462;28;20046;-61
2023/09/17 09:52:16;;;;;;;0.30;0.00;;;;;;;21.60;100.00;101075.06;4992117;28;20038;-62
2023/09/17 09:54:43;;;;;;;0.00;0.00;;;;;;;21.52;100.00;101071.56;4989896;28;20493;-62
2023/09/17 09:57:11;;;;;;;0.08;0.00;;;;;;;21.40;100.00;101067.06;4992257;28;20026;-61
2023/09/17 09:59:37;;;;;;;0.10;0.00;;;;;;;21.36;100.00;101074.59;4992258;28;20030;-62
2023/09/17 10:02:04;;;;;;;0.03;0.00;;;;;;;21.41;100.00;101077.47;4991661;28;20034;-61
2023/09/17 10:04:29;;;;;;;0.00;0.00;;;;;;;21.46;100.00;101072.38;4991428;28;20034;-61
2023/09/17 10:06:56;;;;;;;0.10;0.10;;;;;;;21.50;99.49;101067.50;4991407;28;20077;-61
2023/09/17 10:09:25;;;;;;;0.00;0.00;;;;;;;21.50;100.00;101070.13;4991324;28;20022;-61
2023/09/17 10:11:53;;;;;;;0.00;0.00;;;;;;;21.53;100.00;101075.84;4991724;28;20035;-61
2023/09/17 10:14:21;;;;;;;0.00;0.00;;;;;;;21.71;100.00;101069.16;4990874;28;20026;-62
2023/09/17 10:16:49;;;;;;;0.10;0.00;;;;;;;21.97;100.00;101066.50;4991140;28;20061;-61
2023/09/17 10:19:19;;;;;;;0.10;0.00;;;;;;;22.16;98.82;101057.75;4987471;28;20042;-61
2023/09/17 10:21:46;;;;;;;0.00;0.00;;;;;;;22.17;99.08;101062.03;4990184;28;20141;-61
2023/09/17 10:24:13;;;;;;;0.30;0.10;;;;;;;22.17;99.08;101058.56;4991462;28;20060;-61
2023/09/17 10:26:42;;;;;;;0.25;0.00;;;;;;;22.07;96.17;101058.16;4989620;28;20101;-62
2023/09/17 10:29:12;;;;;;;0.10;0.00;;;;;;;22.06;97.77;101059.19;4991419;28;20038;-61
2023/09/17 10:31:40;;;;;;;0.20;0.00;;;;;;;22.04;97.92;101048.78;4991462;28;20036;-61
2023/09/17 10:34:06;;;;;;;0.10;0.00;;;;;;;22.06;98.05;101057.34;4991413;28;20042;-61
2023/09/17 10:36:33;;;;;;;0.25;0.05;;;;;;;22.12;98.56;101048.56;4991273;28;20435;-61
2023/09/17 10:38:59;;;;;;;0.00;0.00;;;;;;;22.15;99.61;101042.84;4991270;28;20484;-61
2023/09/17 10:41:29;;;;;;;0.10;0.00;;;;;;;22.16;98.14;101048.97;4989636;28;20034;-61
2023/09/17 10:43:58;;;;;;;0.15;0.10;;;;;;;22.15;98.72;101037.53;4991336;28;20058;-61
2023/09/17 10:46:26;;;;;;;0.20;0.00;;;;;;;22.21;99.83;101033.25;4990795;28;20026;-61
2023/09/17 10:48:53;;;;;;;0.08;0.00;;;;;;;22.26;97.12;101024.63;4991378;28;20058;-61
2023/09/17 10:51:19;;;;;;;0.00;0.00;;;;;;;22.27;98.37;101024.44;4990430;28;20475;-61
2023/09/17 10:53:45;;;;;;;0.00;0.00;;;;;;;22.38;98.99;101034.41;4990006;28;20042;-61
2023/09/17 10:56:13;;;;;;;0.00;0.00;;;;;;;22.54;98.10;101027.84;4990996;28;20432;-61
2023/09/17 10:58:43;;;;;;;0.20;0.08;;;;;;;22.60;97.11;101028.84;4992000;28;20041;-61
2023/09/17 11:01:12;;;;;;;0.30;0.00;;;;;;;22.66;97.83;101031.47;4990259;28;20040;-61
2023/09/17 11:03:41;;;;;;;0.30;0.10;;;;;;;22.64;97.30;101027.41;4990844;28;20035;-61
2023/09/17 11:06:15;;;;;;;0.20;0.08;;;;;;;22.45;95.08;101026.44;4990931;28;20117;-61
2023/09/17 11:08:43;;;;;;;0.20;0.00;;;;;;;22.40;94.99;101024.41;4990673;28;20022;-61
2023/09/17 11:11:16;;;;;;;0.10;0.00;;;;;;;22.54;97.42;101019.88;4991079;28;20504;-61
2023/09/17 11:13:46;;;;;;;0.00;0.00;;;;;;;22.57;97.06;101022.13;4990448;28;20369;-61
2023/09/17 11:16:15;;;;;;;0.00;0.00;;;;;;;22.55;97.29;101015.38;4987086;28;20313;-61